createdAt,value
2023-04-17T00:00:46.226Z,99.25
2023-04-17T00:03:18.225Z,88.95
2023-04-17T00:05:46.432Z,87.43
2023-04-17T00:08:17.434Z,86.82
2023-04-17T00:10:51.288Z,86.35
2023-04-17T00:13:28.541Z,89.25
2023-04-17T00:15:56.627Z,80.07
2023-04-17T00:18:27.522Z,85.10
2023-04-17T00:20:57.211Z,84.85
2023-04-17T00:23:26.706Z,86.88
2023-04-17T00:25:54.719Z,86.53
2023-04-17T00:28:23.978Z,86.03
2023-04-17T00:30:52.182Z,91.40
2023-04-17T00:33:22.809Z,91.55
2023-04-17T00:35:52.891Z,89.15
2023-04-17T00:38:23.370Z,88.10
2023-04-17T00:40:51.906Z,91.95
2023-04-17T00:43:21.329Z,95.50
2023-04-17T00:45:50.582Z,93.95
2023-04-17T00:48:21.234Z,85.43
2023-04-17T00:50:52.130Z,88.30
2023-04-17T00:53:21.448Z,90.72
2023-04-17T00:55:53.027Z,87.97
2023-04-17T00:58:22.843Z,91.25
2023-04-17T01:00:52.801Z,82.90
2023-04-17T01:03:23.090Z,103.50
2023-04-17T01:05:54.032Z,92.70
2023-04-17T01:08:24.383Z,92.38
2023-04-17T01:10:52.693Z,88.28
2023-04-17T01:13:21.366Z,97.75
2023-04-17T01:15:51.796Z,99.18
2023-04-17T01:18:21.059Z,90.60
2023-04-17T01:20:49.132Z,97.20
2023-04-17T01:23:20.087Z,98.32
2023-04-17T01:25:51.382Z,96.65
2023-04-17T01:28:20.020Z,113.82
2023-04-17T01:30:48.486Z,111.25
2023-04-17T01:33:18.983Z,101.57
2023-04-17T01:35:49.191Z,94.90
2023-04-17T01:38:18.458Z,93.93
2023-04-17T01:40:46.838Z,89.03
2023-04-17T01:43:18.964Z,89.68
2023-04-17T01:45:47.242Z,94.22
2023-04-17T01:48:16.654Z,84.47
2023-04-17T01:50:44.849Z,78.28
2023-04-17T01:53:12.898Z,79.88
2023-04-17T01:55:42.191Z,85.25
2023-04-17T01:58:11.418Z,84.20
2023-04-17T02:00:42.021Z,83.28
2023-04-17T02:03:12.588Z,80.43
2023-04-17T02:05:40.840Z,85.60
2023-04-17T02:08:11.323Z,89.50
2023-04-17T02:10:41.333Z,84.78
2023-04-17T02:13:13.935Z,80.45
2023-04-17T02:15:44.316Z,82.88
2023-04-17T02:18:15.632Z,84.32
2023-04-17T02:20:43.784Z,81.72
2023-04-17T02:23:12.196Z,92.18
2023-04-17T02:25:41.534Z,76.57
2023-04-17T02:28:09.595Z,85.00
2023-04-17T02:30:39.102Z,84.97
2023-04-17T02:33:08.894Z,88.13
2023-04-17T02:35:38.341Z,84.70
2023-04-17T02:38:07.707Z,94.78
2023-04-17T02:40:37.438Z,104.47
2023-04-17T02:43:07.945Z,110.15
2023-04-17T02:45:36.739Z,119.80
2023-04-17T02:48:05.792Z,170.88
2023-04-17T02:50:36.534Z,86.32
2023-04-17T02:53:12.151Z,75.15
2023-04-17T02:55:41.636Z,71.18
2023-04-17T02:58:11.374Z,75.03
2023-04-17T03:00:40.892Z,70.18
2023-04-17T03:03:13.626Z,70.32
2023-04-17T03:05:45.022Z,74.22
2023-04-17T03:08:15.566Z,82.72
2023-04-17T03:10:46.860Z,74.75
2023-04-17T03:13:16.299Z,70.20
2023-04-17T03:15:44.349Z,62.15
2023-04-17T03:18:13.746Z,65.85
2023-04-17T03:20:44.479Z,71.93
2023-04-17T03:23:12.559Z,71.55
2023-04-17T03:25:42.291Z,66.25
2023-04-17T03:28:11.701Z,73.03
2023-04-17T03:30:40.416Z,64.53
2023-04-17T03:33:11.711Z,74.03
2023-04-17T03:35:40.949Z,79.03
2023-04-17T03:38:11.706Z,71.15
2023-04-17T03:40:41.942Z,77.65
2023-04-17T03:43:13.355Z,75.43
2023-04-17T03:45:41.507Z,80.45
2023-04-17T03:48:10.946Z,76.32
2023-04-17T03:50:39.487Z,75.07
2023-04-17T03:53:07.602Z,81.97
2023-04-17T03:55:37.487Z,78.95
2023-04-17T03:58:07.940Z,74.05
2023-04-17T04:00:38.572Z,83.63
2023-04-17T04:03:11.504Z,85.22
2023-04-17T04:05:43.330Z,81.28
2023-04-17T04:08:12.376Z,92.18
2023-04-17T04:10:48.026Z,105.40
2023-04-17T04:13:22.822Z,114.05
2023-04-17T04:15:57.356Z,160.45
2023-04-17T04:18:28.036Z,132.40
2023-04-17T04:20:56.131Z,106.10
2023-04-17T04:23:31.500Z,118.65
2023-04-17T04:26:03.489Z,110.72
2023-04-17T04:28:40.658Z,99.13
2023-04-17T04:31:18.771Z,120.72
2023-04-17T04:33:47.806Z,127.93
2023-04-17T04:36:21.072Z,164.32
2023-04-17T04:39:01.031Z,135.93
2023-04-17T04:41:35.317Z,139.48
2023-04-17T04:44:07.913Z,168.77
2023-04-17T04:46:38.694Z,132.75
2023-04-17T04:49:09.843Z,132.70
2023-04-17T04:51:39.766Z,128.38
2023-04-17T04:54:10.971Z,124.20
2023-04-17T04:56:54.388Z,132.00
2023-04-17T04:59:23.895Z,130.98
2023-04-17T05:02:04.095Z,129.52
2023-04-17T05:04:33.844Z,134.52
2023-04-17T05:07:04.938Z,168.82
2023-04-17T05:09:37.424Z,194.25
2023-04-17T05:12:08.936Z,270.40
2023-04-17T05:14:37.422Z,169.52
2023-04-17T05:17:05.629Z,277.08
2023-04-17T05:19:36.538Z,234.50
2023-04-17T05:22:07.890Z,135.63
2023-04-17T05:24:44.279Z,125.68
2023-04-17T05:27:13.656Z,127.60
2023-04-17T05:29:42.989Z,119.60
2023-04-17T05:32:12.388Z,115.55
2023-04-17T05:34:51.296Z,121.70
2023-04-17T05:37:23.263Z,112.63
2023-04-17T05:39:52.894Z,107.47
2023-04-17T05:42:22.328Z,103.57
2023-04-17T05:44:53.628Z,105.85
2023-04-17T05:47:21.739Z,103.03
2023-04-17T05:49:55.536Z,99.32
2023-04-17T05:52:25.254Z,111.50
2023-04-17T05:54:54.508Z,100.82
2023-04-17T05:57:26.121Z,117.57
2023-04-17T05:59:54.377Z,109.90
2023-04-17T06:02:24.207Z,109.80
2023-04-17T06:04:53.856Z,109.93
2023-04-17T06:07:22.118Z,114.78
2023-04-17T06:09:51.486Z,106.40
2023-04-17T06:12:19.779Z,139.38
2023-04-17T06:14:50.588Z,130.35
2023-04-17T06:17:25.454Z,151.35
2023-04-17T06:19:55.607Z,150.98
2023-04-17T06:22:26.570Z,167.88
2023-04-17T06:24:56.259Z,231.38
2023-04-17T06:27:26.703Z,298.23
2023-04-17T06:29:56.908Z,168.55
2023-04-17T06:32:27.612Z,276.27
2023-04-17T06:34:59.590Z,232.73
2023-04-17T06:37:54.036Z,170.30
2023-04-17T06:40:22.422Z,177.48
2023-04-17T06:42:51.961Z,148.07
2023-04-17T06:45:23.399Z,132.05
2023-04-17T06:47:52.789Z,176.30
2023-04-17T06:50:22.683Z,255.18
2023-04-17T06:52:53.293Z,236.65
2023-04-17T06:55:22.560Z,127.68
2023-04-17T06:57:52.999Z,114.75
2023-04-17T07:00:24.031Z,112.70
2023-04-17T07:02:52.365Z,114.47
2023-04-17T07:05:20.455Z,109.82
2023-04-17T07:07:49.632Z,108.05
2023-04-17T07:10:19.635Z,108.95
2023-04-17T07:12:47.798Z,115.75
2023-04-17T07:15:17.412Z,113.95
2023-04-17T07:17:49.340Z,114.13
2023-04-17T07:20:18.574Z,109.10
2023-04-17T07:22:51.098Z,111.55
2023-04-17T07:25:19.886Z,112.32
2023-04-17T07:27:48.095Z,114.22
2023-04-17T07:30:17.483Z,112.43
2023-04-17T07:32:48.693Z,120.70
2023-04-17T07:35:18.226Z,109.35
2023-04-17T07:37:47.484Z,102.40
2023-04-17T07:40:17.517Z,107.00
2023-04-17T07:42:46.888Z,108.22
2023-04-17T07:45:16.170Z,105.80
2023-04-17T07:47:44.277Z,112.63
2023-04-17T07:50:16.621Z,109.82
2023-04-17T07:52:44.675Z,112.60
2023-04-17T07:55:13.055Z,119.63
2023-04-17T07:57:42.777Z,117.00
2023-04-17T08:00:13.779Z,118.10
2023-04-17T08:02:43.587Z,116.22
2023-04-17T08:05:12.516Z,117.03
2023-04-17T08:07:43.267Z,122.97
2023-04-17T08:10:12.752Z,216.45
2023-04-17T08:12:42.505Z,239.00
2023-04-17T08:15:13.013Z,318.35
2023-04-17T08:17:42.573Z,308.95
2023-04-17T08:20:12.379Z,329.20
2023-04-17T08:25:13.301Z,309.17
2023-04-17T08:27:45.088Z,305.00
2023-04-17T08:30:18.615Z,260.92
2023-04-17T08:32:50.592Z,285.85
2023-04-17T08:35:20.765Z,290.50
2023-04-17T08:37:52.692Z,294.27
2023-04-17T08:40:23.872Z,280.83
2023-04-17T08:42:55.088Z,294.60
2023-04-17T08:45:25.050Z,288.23
2023-04-17T08:47:55.762Z,297.27
2023-04-17T08:50:25.246Z,311.35
2023-04-17T08:52:56.294Z,274.38
2023-04-17T08:55:28.994Z,286.13
2023-04-17T08:58:01.095Z,294.10
2023-04-17T09:00:32.919Z,282.17
2023-04-17T09:03:04.788Z,297.23
2023-04-17T09:05:36.872Z,254.20
2023-04-17T09:08:15.659Z,320.00
2023-04-17T09:10:46.763Z,310.52
2023-04-17T09:13:20.411Z,303.35
2023-04-17T09:16:05.629Z,330.13
2023-04-17T09:18:36.807Z,261.42
2023-04-17T09:21:09.208Z,302.55
2023-04-17T09:23:50.872Z,355.65
2023-04-17T09:26:21.038Z,398.55
2023-04-17T09:29:09.752Z,360.23
2023-04-17T09:31:41.340Z,373.33
2023-04-17T09:34:11.927Z,341.95
2023-04-17T09:36:41.631Z,340.85
2023-04-17T09:39:21.864Z,333.33
2023-04-17T09:41:52.120Z,335.85
2023-04-17T09:44:27.922Z,325.45
2023-04-17T09:46:58.077Z,338.10
2023-04-17T09:49:35.975Z,336.23
2023-04-17T09:52:04.926Z,338.92
2023-04-17T09:54:38.843Z,352.23
2023-04-17T09:57:09.619Z,356.77
2023-04-17T09:59:40.775Z,355.15
2023-04-17T10:02:11.527Z,356.63
2023-04-17T10:04:43.314Z,361.38
2023-04-17T10:07:13.011Z,335.95
2023-04-17T10:09:45.687Z,346.90
2023-04-17T10:12:17.771Z,354.33
2023-04-17T10:14:52.182Z,369.10
2023-04-17T10:17:26.210Z,339.13
2023-04-17T10:19:56.016Z,330.58
2023-04-17T10:22:41.052Z,325.80
2023-04-17T10:25:22.438Z,348.02
2023-04-17T10:27:59.343Z,370.55
2023-04-17T10:30:53.891Z,367.70
2023-04-17T10:33:26.414Z,371.33
2023-04-17T10:35:55.320Z,366.65
2023-04-17T10:38:38.286Z,361.02
2023-04-17T10:41:11.167Z,380.63
2023-04-17T10:43:46.360Z,376.25
2023-04-17T10:46:16.127Z,408.15
2023-04-17T10:48:49.822Z,395.25
2023-04-17T10:51:42.669Z,380.98
2023-04-17T10:54:16.526Z,365.75
2023-04-17T10:56:48.419Z,372.23
2023-04-17T10:59:20.086Z,365.88
2023-04-17T11:02:04.828Z,406.58
2023-04-17T11:04:36.101Z,381.42
2023-04-17T11:07:04.234Z,374.27
2023-04-17T11:09:32.378Z,383.65
2023-04-17T11:12:03.343Z,381.92
2023-04-17T11:14:33.854Z,382.05
2023-04-17T11:17:02.550Z,358.65
2023-04-17T11:19:34.374Z,392.20
2023-04-17T11:22:03.806Z,383.00
2023-04-17T11:27:04.718Z,390.73
2023-04-17T11:29:34.305Z,397.02
2023-04-17T11:32:02.430Z,399.90
2023-04-17T11:34:33.035Z,406.88
2023-04-17T11:37:03.078Z,398.13
2023-04-17T11:39:35.601Z,394.20
2023-04-17T11:42:06.651Z,391.27
2023-04-17T11:44:36.150Z,385.90
2023-04-17T11:47:06.680Z,405.38
2023-04-17T11:49:40.281Z,384.23
2023-04-17T11:52:08.292Z,391.20
2023-04-17T11:54:40.402Z,384.70
2023-04-17T11:57:15.538Z,376.98
2023-04-17T11:59:47.301Z,379.33
2023-04-17T12:02:17.063Z,384.30
2023-04-17T12:04:47.725Z,281.38
2023-04-17T12:07:24.944Z,389.58
2023-04-17T12:09:59.492Z,386.55
2023-04-17T12:15:00.990Z,368.30
2023-04-17T12:17:29.342Z,340.98
2023-04-17T12:20:02.423Z,368.42
2023-04-17T12:22:32.295Z,362.20
2023-04-17T12:25:01.563Z,371.90
2023-04-17T12:27:37.260Z,379.42
2023-04-17T12:30:08.259Z,301.60
2023-04-17T12:32:36.354Z,237.50
2023-04-17T12:35:07.479Z,252.68
2023-04-17T12:37:36.740Z,271.00
2023-04-17T12:42:46.499Z,284.70
2023-04-17T12:45:18.550Z,270.60
2023-04-17T12:47:47.949Z,315.77
2023-04-17T12:50:17.310Z,338.65
2023-04-17T12:55:14.973Z,299.65
2023-04-17T12:57:46.179Z,264.20
2023-04-17T13:00:17.144Z,311.77
2023-04-17T13:02:46.647Z,288.30
2023-04-17T13:05:17.359Z,337.83
2023-04-17T13:07:46.252Z,329.17
2023-04-17T13:10:16.866Z,320.95
2023-04-17T13:12:47.635Z,326.48
2023-04-17T13:15:16.336Z,319.25
2023-04-17T13:17:45.929Z,325.40
2023-04-17T13:20:16.551Z,320.08
2023-04-17T13:22:44.716Z,311.38
2023-04-17T13:27:43.119Z,318.35
2023-04-17T13:30:14.910Z,325.55
2023-04-17T13:32:44.420Z,327.60
2023-04-17T13:35:15.823Z,304.83
2023-04-17T13:37:43.903Z,336.45
2023-04-17T13:40:16.575Z,344.35
2023-04-17T13:42:46.807Z,339.42
2023-04-17T13:45:17.391Z,345.67
2023-04-17T13:47:46.035Z,347.00
2023-04-17T13:50:16.648Z,350.00
2023-04-17T13:52:44.696Z,319.42
2023-04-17T13:55:17.221Z,335.92
2023-04-17T13:57:45.374Z,336.27
2023-04-17T14:00:19.503Z,341.45
2023-04-17T14:02:49.176Z,340.58
2023-04-17T14:05:17.647Z,333.52
2023-04-17T14:07:45.882Z,337.30
2023-04-17T14:10:14.578Z,340.67
2023-04-17T14:12:42.621Z,332.33
2023-04-17T14:15:15.089Z,271.23
2023-04-17T14:17:45.990Z,286.33
2023-04-17T14:20:16.732Z,347.23
2023-04-17T14:22:45.585Z,336.88
2023-04-17T14:25:13.721Z,358.65
2023-04-17T14:27:43.401Z,329.02
2023-04-17T14:30:13.021Z,342.73
2023-04-17T14:32:42.710Z,348.05
2023-04-17T14:35:13.421Z,343.42
2023-04-17T14:37:41.902Z,311.77
2023-04-17T14:40:12.588Z,339.98
2023-04-17T14:42:53.673Z,345.77
2023-04-17T14:45:24.257Z,364.48
2023-04-17T14:47:54.059Z,381.63
2023-04-17T14:50:25.031Z,379.30
2023-04-17T14:52:55.738Z,358.75
2023-04-17T14:55:25.123Z,371.00
2023-04-17T14:57:53.707Z,371.58
2023-04-17T15:00:22.401Z,358.40
2023-04-17T15:02:50.946Z,356.60
2023-04-17T15:05:22.383Z,370.48
2023-04-17T15:07:51.782Z,380.98
2023-04-17T15:10:21.207Z,210.85
2023-04-17T15:12:49.293Z,360.88
2023-04-17T15:15:17.418Z,362.60
2023-04-17T15:17:45.493Z,375.92
2023-04-17T15:20:13.602Z,370.13
2023-04-17T15:22:43.868Z,356.13
2023-04-17T15:25:13.375Z,367.50
2023-04-17T15:27:42.645Z,378.08
2023-04-17T15:30:14.816Z,378.08
2023-04-17T15:32:44.776Z,354.02
2023-04-17T15:35:14.199Z,341.55
2023-04-17T15:37:43.547Z,361.88
2023-04-17T15:40:15.046Z,365.90
2023-04-17T15:42:43.630Z,351.27
2023-04-17T15:45:12.275Z,349.77
2023-04-17T15:47:40.426Z,353.02
2023-04-17T15:50:10.379Z,367.20
2023-04-17T15:52:38.416Z,362.95
2023-04-17T15:55:08.483Z,352.95
2023-04-17T15:57:38.179Z,355.40
2023-04-17T16:00:07.990Z,371.85
2023-04-17T16:02:38.270Z,363.85
2023-04-17T16:05:08.716Z,367.25
2023-04-17T16:07:36.732Z,363.52
2023-04-17T16:10:13.917Z,336.75
2023-04-17T16:12:46.160Z,349.52
2023-04-17T16:15:18.259Z,389.55
2023-04-17T16:17:48.580Z,395.58
2023-04-17T16:20:18.661Z,359.58
2023-04-17T16:22:46.693Z,409.13
2023-04-17T16:25:14.772Z,398.50
2023-04-17T16:27:44.311Z,375.27
2023-04-17T16:30:15.759Z,345.85
2023-04-17T16:32:45.456Z,330.80
2023-04-17T16:35:15.105Z,355.65
2023-04-17T16:40:14.157Z,370.13
2023-04-17T16:42:44.934Z,349.42
2023-04-17T16:45:14.331Z,341.27
2023-04-17T16:47:43.677Z,350.52
2023-04-17T16:50:14.252Z,328.92
2023-04-17T16:52:43.601Z,338.20
2023-04-17T16:55:11.922Z,328.08
2023-04-17T17:00:16.163Z,285.02
2023-04-17T17:02:44.421Z,345.13
2023-04-17T17:05:15.350Z,349.90
2023-04-17T17:07:43.400Z,342.45
2023-04-17T17:10:13.495Z,360.85
2023-04-17T17:12:41.724Z,310.20
2023-04-17T17:15:13.136Z,301.92
2023-04-17T17:17:43.334Z,346.70
2023-04-17T17:20:14.777Z,344.33
2023-04-17T17:22:42.838Z,335.73
2023-04-17T17:25:12.327Z,341.83
2023-04-17T17:27:41.545Z,349.48
2023-04-17T17:30:14.561Z,350.52
2023-04-17T17:32:42.658Z,349.48
2023-04-17T17:35:11.462Z,353.75
2023-04-17T17:37:39.522Z,336.83
2023-04-17T17:40:11.025Z,346.08
2023-04-17T17:42:39.279Z,328.70
2023-04-17T17:45:08.751Z,351.63
2023-04-17T17:47:38.166Z,339.30
2023-04-17T17:50:09.708Z,351.23
2023-04-17T17:52:37.738Z,340.40
2023-04-17T17:55:07.871Z,334.70
2023-04-17T17:57:48.278Z,330.48
2023-04-17T18:00:20.830Z,344.08
2023-04-17T18:02:50.376Z,310.55
2023-04-17T18:05:20.224Z,335.73
2023-04-17T18:07:48.429Z,325.10
2023-04-17T18:10:18.059Z,336.83
2023-04-17T18:12:46.359Z,308.95
2023-04-17T18:15:16.861Z,328.80
2023-04-17T18:17:44.950Z,326.20
2023-04-17T18:20:15.009Z,346.33
2023-04-17T18:22:43.029Z,338.98
2023-04-17T18:25:13.583Z,341.85
2023-04-17T18:27:42.811Z,341.83
2023-04-17T18:30:13.603Z,332.42
2023-04-17T18:32:42.865Z,323.52
2023-04-17T18:35:13.484Z,305.67
2023-04-17T18:37:45.191Z,329.75
2023-04-17T18:40:14.124Z,307.83
2023-04-17T18:42:43.872Z,331.45
2023-04-17T18:45:16.941Z,308.13
2023-04-17T18:47:46.265Z,317.48
2023-04-17T18:50:15.613Z,262.30
2023-04-17T18:52:50.273Z,300.48
2023-04-17T18:55:20.712Z,268.55
2023-04-17T18:57:48.872Z,237.90
2023-04-17T19:00:19.634Z,278.23
2023-04-17T19:02:51.298Z,340.08
2023-04-17T19:05:22.502Z,336.35
2023-04-17T19:07:53.325Z,342.02
2023-04-17T19:10:23.041Z,330.95
2023-04-17T19:12:51.172Z,312.63
2023-04-17T19:15:21.008Z,271.25
2023-04-17T19:22:48.167Z,242.02
2023-04-17T19:25:19.031Z,350.83
2023-04-17T19:27:48.394Z,342.83
2023-04-17T19:30:18.284Z,348.13
2023-04-17T19:32:46.969Z,340.38
2023-04-17T19:37:44.530Z,272.27
2023-04-17T19:40:24.480Z,323.80
2023-04-17T19:42:56.209Z,330.08
2023-04-17T19:45:27.108Z,331.02
2023-04-17T19:47:57.089Z,336.20
2023-04-17T19:50:28.281Z,326.95
2023-04-17T19:52:58.704Z,317.00
2023-04-17T19:55:26.820Z,336.02
2023-04-17T19:57:58.746Z,333.13
2023-04-17T20:00:28.242Z,327.10
2023-04-17T20:02:56.472Z,342.55
2023-04-17T20:05:27.356Z,336.65
2023-04-17T20:07:55.467Z,333.95
2023-04-17T20:10:25.546Z,312.88
2023-04-17T20:12:54.824Z,347.08
2023-04-17T20:15:25.468Z,314.20
2023-04-17T20:17:55.475Z,336.40
2023-04-17T20:20:26.070Z,343.63
2023-04-17T20:22:55.355Z,355.80
2023-04-17T20:25:24.787Z,325.20
2023-04-17T20:27:52.865Z,340.20
2023-04-17T20:30:22.396Z,317.73
2023-04-17T20:32:53.168Z,336.40
2023-04-17T20:35:25.633Z,308.50
2023-04-17T20:37:54.863Z,305.65
2023-04-17T20:40:24.688Z,270.13
2023-04-17T20:42:54.253Z,255.23
2023-04-17T20:45:24.905Z,242.82
2023-04-17T20:47:56.974Z,230.00
2023-04-17T20:50:26.641Z,215.80
2023-04-17T20:52:54.727Z,202.75
2023-04-17T20:55:25.420Z,202.85
2023-04-17T20:57:54.630Z,191.75
2023-04-17T21:00:23.873Z,190.98
2023-04-17T21:02:54.556Z,189.45
2023-04-17T21:05:25.406Z,167.23
2023-04-17T21:07:54.885Z,166.30
2023-04-17T21:10:25.527Z,164.18
2023-04-17T21:12:54.770Z,172.82
2023-04-17T21:15:22.956Z,174.23
2023-04-17T21:17:52.348Z,159.05
2023-04-17T21:20:22.999Z,146.35
2023-04-17T21:22:52.232Z,154.52
2023-04-17T21:25:20.602Z,148.30
2023-04-17T21:27:49.028Z,148.35
2023-04-17T21:30:19.792Z,153.10
2023-04-17T21:32:48.562Z,155.95
2023-04-17T21:35:17.897Z,186.65
2023-04-17T21:37:47.552Z,170.57
2023-04-17T21:40:17.163Z,147.02
2023-04-17T21:42:46.576Z,137.45
2023-04-17T21:45:17.874Z,142.48
2023-04-17T21:47:45.911Z,144.25
2023-04-17T21:50:15.311Z,139.38
2023-04-17T21:52:43.371Z,133.77
2023-04-17T21:55:15.308Z,144.82
2023-04-17T21:57:44.595Z,147.75
2023-04-17T22:00:16.257Z,141.25
2023-04-17T22:02:45.619Z,142.65
2023-04-17T22:05:15.312Z,137.48
2023-04-17T22:07:54.299Z,142.38
2023-04-17T22:10:26.860Z,140.25
2023-04-17T22:12:56.365Z,135.18
2023-04-17T22:15:25.683Z,130.00
2023-04-17T22:17:55.078Z,129.52
2023-04-17T22:20:23.302Z,126.32
2023-04-17T22:22:51.381Z,134.43
2023-04-17T22:25:23.035Z,145.57
2023-04-17T22:27:53.765Z,141.25
2023-04-17T22:30:22.061Z,144.07
2023-04-17T22:32:50.104Z,165.43
2023-04-17T22:35:20.637Z,154.68
2023-04-17T22:37:49.161Z,151.43
2023-04-17T22:40:18.585Z,148.15
2023-04-17T22:42:47.857Z,152.77
2023-04-17T22:45:17.568Z,159.32
2023-04-17T22:47:47.126Z,155.55
2023-04-17T22:50:17.733Z,160.85
2023-04-17T22:52:45.907Z,178.63
2023-04-17T22:55:14.235Z,167.70
2023-04-17T22:57:42.298Z,180.02
2023-04-17T23:00:14.035Z,187.43
2023-04-17T23:02:43.528Z,182.05
2023-04-17T23:05:12.859Z,181.20
2023-04-17T23:07:41.032Z,195.10
2023-04-17T23:10:12.358Z,201.23
2023-04-17T23:12:41.570Z,211.77
2023-04-17T23:15:12.454Z,208.95
2023-04-17T23:17:40.601Z,211.07
2023-04-17T23:20:13.819Z,239.95
2023-04-17T23:22:43.165Z,263.58
2023-04-17T23:25:13.891Z,266.20
2023-04-17T23:27:41.889Z,247.48
2023-04-17T23:30:13.495Z,251.90
2023-04-17T23:32:43.237Z,271.10
2023-04-17T23:35:13.881Z,252.40
2023-04-17T23:37:43.227Z,219.88
2023-04-17T23:40:13.600Z,216.00
2023-04-17T23:42:42.941Z,205.80
2023-04-17T23:45:13.142Z,201.77
2023-04-17T23:47:41.304Z,211.77
2023-04-17T23:50:10.866Z,203.68
2023-04-17T23:52:41.421Z,205.23
2023-04-17T23:55:10.728Z,203.38
2023-04-17T23:57:39.955Z,207.68
